sensor_id;sensor_type;location;lat;lon;timestamp;pressure;altitude;pressure_sealevel;temperature;humidity
21504;BME280;10913;51.992;9.228;2024-03-22T00:00:42;100820.22;;;9.31;100.00
21504;BME280;10913;51.992;9.228;2024-03-22T00:03:07;100824.59;;;9.32;100.00
21504;BME280;10913;51.992;9.228;2024-03-22T00:05:32;100823.75;;;9.33;100.00
21504;BME280;10913;51.992;9.228;2024-03-22T00:07:58;100820.25;;;9.36;100.00
21504;BME280;10913;51.992;9.228;2024-03-22T00:10:23;100818.47;;;9.40;100.00
21504;BME280;10913;51.992;9.228;2024-03-22T00:12:51;100822.91;;;9.42;100.00
21504;BME280;10913;51.992;9.228;2024-03-22T00:15:17;100816.75;;;9.43;100.00
21504;BME280;10913;51.992;9.228;2024-03-22T00:17:43;100822.03;;;9.45;100.00
21504;BME280;10913;51.992;9.228;2024-03-22T00:20:09;100823.81;;;9.46;100.00
21504;BME280;10913;51.992;9.228;2024-03-22T00:22:34;100819.41;;;9.46;100.00
21504;BME280;10913;51.992;9.228;2024-03-22T00:24:59;100810.63;;;9.47;100.00
21504;BME280;10913;51.992;9.228;2024-03-22T00:27:25;100815.03;;;9.47;100.00
21504;BME280;10913;51.992;9.228;2024-03-22T00:29:50;100811.50;;;9.48;100.00
21504;BME280;10913;51.992;9.228;2024-03-22T00:32:15;100812.41;;;9.50;100.00
21504;BME280;10913;51.992;9.228;2024-03-22T00:34:41;100812.41;;;9.50;100.00
21504;BME280;10913;51.992;9.228;2024-03-22T00:37:06;100818.56;;;9.52;100.00
21504;BME280;10913;51.992;9.228;2024-03-22T00:39:32;100812.44;;;9.53;100.00
21504;BME280;10913;51.992;9.228;2024-03-22T00:41:57;100809.78;;;9.53;100.00
21504;BME280;10913;51.992;9.228;2024-03-22T00:44:22;100812.44;;;9.54;100.00
21504;BME280;10913;51.992;9.228;2024-03-22T00:46:48;100809.81;;;9.56;100.00
21504;BME280;10913;51.992;9.228;2024-03-22T00:49:13;100802.78;;;9.58;100.00
21504;BME280;10913;51.992;9.228;2024-03-22T00:51:38;100805.41;;;9.59;100.00
21504;BME280;10913;51.992;9.228;2024-03-22T00:54:04;100794.00;;;9.59;100.00
21504;BME280;10913;51.992;9.228;2024-03-22T00:56:29;100790.47;;;9.57;100.00
21504;BME280;10913;51.992;9.228;2024-03-22T00:58:54;100786.09;;;9.57;100.00
21504;BME280;10913;51.992;9.228;2024-03-22T01:01:20;100787.84;;;9.57;100.00
21504;BME280;10913;51.992;9.228;2024-03-22T01:03:45;100775.53;;;9.57;100.00
21504;BME280;10913;51.992;9.228;2024-03-22T01:06:10;100771.16;;;9.58;100.00
21504;BME280;10913;51.992;9.228;2024-03-22T01:08:36;100768.47;;;9.59;100.00
21504;BME280;10913;51.992;9.228;2024-03-22T01:11:01;100765.88;;;9.58;100.00
21504;BME280;10913;51.992;9.228;2024-03-22T01:13:26;100750.91;;;9.58;100.00
21504;BME280;10913;51.992;9.228;2024-03-22T01:15:52;100744.75;;;9.61;100.00
21504;BME280;10913;51.992;9.228;2024-03-22T01:18:17;100748.28;;;9.63;100.00
21504;BME280;10913;51.992;9.228;2024-03-22T01:20:43;100743.88;;;9.63;100.00
21504;BME280;10913;51.992;9.228;2024-03-22T01:23:08;100745.66;;;9.66;100.00
21504;BME280;10913;51.992;9.228;2024-03-22T01:25:33;100744.78;;;9.67;100.00
21504;BME280;10913;51.992;9.228;2024-03-22T01:27:59;100742.13;;;9.65;100.00
21504;BME280;10913;51.992;9.228;2024-03-22T01:30:24;100743.03;;;9.66;100.00
21504;BME280;10913;51.992;9.228;2024-03-22T01:32:54;100746.53;;;9.66;100.00
21504;BME280;10913;51.992;9.228;2024-03-22T01:35:19;100751.84;;;9.70;100.00
21504;BME280;10913;51.992;9.228;2024-03-22T01:37:45;100746.56;;;9.70;100.00
21504;BME280;10913;51.992;9.228;2024-03-22T01:40:10;100750.06;;;9.70;100.00
21504;BME280;10913;51.992;9.228;2024-03-22T01:42:36;100742.16;;;9.70;100.00
21504;BME280;10913;51.992;9.228;2024-03-22T01:45:01;100740.41;;;9.72;100.00
21504;BME280;10913;51.992;9.228;2024-03-22T01:47:28;100737.78;;;9.72;100.00
21504;BME280;10913;51.992;9.228;2024-03-22T01:49:54;100732.53;;;9.78;100.00
21504;BME280;10913;51.992;9.228;2024-03-22T01:52:20;100720.22;;;9.83;100.00
21504;BME280;10913;51.992;9.228;2024-03-22T01:54:46;100720.25;;;9.89;100.00
21504;BME280;10913;51.992;9.228;2024-03-22T01:57:11;100716.75;;;9.93;100.00
21504;BME280;10913;51.992;9.228;2024-03-22T01:59:36;100703.53;;;9.99;100.00
21504;BME280;10913;51.992;9.228;2024-03-22T02:02:02;100700.91;;;10.02;100.00
21504;BME280;10913;51.992;9.228;2024-03-22T02:04:28;100686.84;;;10.07;100.00
21504;BME280;10913;51.992;9.228;2024-03-22T02:06:53;100685.97;;;10.12;100.00
21504;BME280;10913;51.992;9.228;2024-03-22T02:09:19;100679.84;;;10.18;100.00
21504;BME280;10913;51.992;9.228;2024-03-22T02:11:46;100675.44;;;10.26;100.00
21504;BME280;10913;51.992;9.228;2024-03-22T02:14:11;100670.19;;;10.30;100.00
21504;BME280;10913;51.992;9.228;2024-03-22T02:16:39;100666.66;;;10.30;100.00
21504;BME280;10913;51.992;9.228;2024-03-22T02:19:05;100674.59;;;10.30;100.00
21504;BME280;10913;51.992;9.228;2024-03-22T02:21:30;100671.06;;;10.28;100.00
21504;BME280;10913;51.992;9.228;2024-03-22T02:23:55;100653.44;;;10.27;100.00
21504;BME280;10913;51.992;9.228;2024-03-22T02:26:21;100654.34;;;10.29;100.00
21504;BME280;10913;51.992;9.228;2024-03-22T02:28:46;100646.41;;;10.29;100.00
21504;BME280;10913;51.992;9.228;2024-03-22T02:31:11;100648.16;;;10.30;100.00
21504;BME280;10913;51.992;9.228;2024-03-22T02:33:37;100642.00;;;10.32;100.00
21504;BME280;10913;51.992;9.228;2024-03-22T02:36:02;100630.56;;;10.35;100.00
21504;BME280;10913;51.992;9.228;2024-03-22T02:38:28;100627.94;;;10.38;100.00
21504;BME280;10913;51.992;9.228;2024-03-22T02:40:53;100617.34;;;10.40;100.00
21504;BME280;10913;51.992;9.228;2024-03-22T02:43:19;100629.69;;;10.39;100.00
21504;BME280;10913;51.992;9.228;2024-03-22T02:45:46;100627.91;;;10.40;100.00
21504;BME280;10913;51.992;9.228;2024-03-22T02:48:12;100625.25;;;10.40;100.00
21504;BME280;10913;51.992;9.228;2024-03-22T02:50:37;100623.50;;;10.40;100.00
21504;BME280;10913;51.992;9.228;2024-03-22T02:53:04;100611.19;;;10.42;100.00
21504;BME280;10913;51.992;9.228;2024-03-22T02:55:30;100605.91;;;10.45;100.00
21504;BME280;10913;51.992;9.228;2024-03-22T02:57:58;100603.25;;;10.47;100.00
21504;BME280;10913;51.992;9.228;2024-03-22T03:00:23;100597.09;;;10.48;100.00
21504;BME280;10913;51.992;9.228;2024-03-22T03:02:49;100596.22;;;10.49;100.00
21504;BME280;10913;51.992;9.228;2024-03-22T03:05:14;100592.69;;;10.51;100.00
21504;BME280;10913;51.992;9.228;2024-03-22T03:07:40;100580.38;;;10.50;100.00
21504;BME280;10913;51.992;9.228;2024-03-22T03:10:06;100577.72;;;10.50;100.00
21504;BME280;10913;51.992;9.228;2024-03-22T03:12:31;100571.56;;;10.50;100.00
21504;BME280;10913;51.992;9.228;2024-03-22T03:14:57;100575.09;;;10.50;100.00
21504;BME280;10913;51.992;9.228;2024-03-22T03:17:22;100577.72;;;10.50;100.00
21504;BME280;10913;51.992;9.228;2024-03-22T03:19:48;100584.75;;;10.51;100.00
21504;BME280;10913;51.992;9.228;2024-03-22T03:22:14;100581.25;;;10.52;100.00
21504;BME280;10913;51.992;9.228;2024-03-22T03:24:39;100582.13;;;10.53;100.00
21504;BME280;10913;51.992;9.228;2024-03-22T03:27:04;100583.88;;;10.52;100.00
21504;BME280;10913;51.992;9.228;2024-03-22T03:29:30;100597.09;;;10.52;100.00
21504;BME280;10913;51.992;9.228;2024-03-22T03:31:55;100597.97;;;10.53;100.00
21504;BME280;10913;51.992;9.228;2024-03-22T03:34:20;100590.06;;;10.53;100.00
21504;BME280;10913;51.992;9.228;2024-03-22T03:36:47;100577.72;;;10.53;100.00
21504;BME280;10913;51.992;9.228;2024-03-22T03:39:12;100574.19;;;10.54;100.00
21504;BME280;10913;51.992;9.228;2024-03-22T03:41:38;100558.34;;;10.53;100.00
21504;BME280;10913;51.992;9.228;2024-03-22T03:44:04;100553.94;;;10.52;100.00
21504;BME280;10913;51.992;9.228;2024-03-22T03:46:29;100553.06;;;10.51;100.00
21504;BME280;10913;51.992;9.228;2024-03-22T03:48:55;100550.44;;;10.51;100.00
21504;BME280;10913;51.992;9.228;2024-03-22T03:51:20;100555.72;;;10.51;100.00
21504;BME280;10913;51.992;9.228;2024-03-22T03:53:45;100565.41;;;10.52;100.00
21504;BME280;10913;51.992;9.228;2024-03-22T03:56:11;100553.06;;;10.53;100.00
21504;BME280;10913;51.992;9.228;2024-03-22T03:58:36;100546.03;;;10.53;100.00
21504;BME280;10913;51.992;9.228;2024-03-22T04:01:08;100539.84;;;10.54;100.00
21504;BME280;10913;51.992;9.228;2024-03-22T04:03:34;100536.34;;;10.55;100.00
21504;BME280;10913;51.992;9.228;2024-03-22T04:05:59;100535.44;;;10.53;100.00
21504;BME280;10913;51.992;9.228;2024-03-22T04:08:26;100530.16;;;10.55;100.00
21504;BME280;10913;51.992;9.228;2024-03-22T04:10:55;100528.41;;;10.52;100.00
21504;BME280;10913;51.992;9.228;2024-03-22T04:13:24;100521.38;;;10.54;100.00
21504;BME280;10913;51.992;9.228;2024-03-22T04:15:49;100523.13;;;10.57;100.00
21504;BME280;10913;51.992;9.228;2024-03-22T04:18:14;100512.50;;;10.64;100.00
21504;BME280;10913;51.992;9.228;2024-03-22T04:20:40;100506.34;;;10.65;100.00
21504;BME280;10913;51.992;9.228;2024-03-22T04:23:05;100491.38;;;10.67;100.00
21504;BME280;10913;51.992;9.228;2024-03-22T04:25:31;100479.91;;;10.67;100.00
21504;BME280;10913;51.992;9.228;2024-03-22T04:27:56;100469.34;;;10.67;100.00
21504;BME280;10913;51.992;9.228;2024-03-22T04:30:21;100469.34;;;10.65;100.00
21504;BME280;10913;51.992;9.228;2024-03-22T04:32:47;100475.53;;;10.64;100.00
21504;BME280;10913;51.992;9.228;2024-03-22T04:35:12;100474.66;;;10.62;100.00
21504;BME280;10913;51.992;9.228;2024-03-22T04:37:37;100484.34;;;10.60;100.00
21504;BME280;10913;51.992;9.228;2024-03-22T04:40:03;100483.50;;;10.58;100.00
21504;BME280;10913;51.992;9.228;2024-03-22T04:42:29;100478.16;;;10.60;100.00
21504;BME280;10913;51.992;9.228;2024-03-22T04:44:54;100468.47;;;10.60;100.00
21504;BME280;10913;51.992;9.228;2024-03-22T04:47:20;100469.38;;;10.61;100.00
21504;BME280;10913;51.992;9.228;2024-03-22T04:49:45;100459.69;;;10.61;100.00
21504;BME280;10913;51.992;9.228;2024-03-22T04:52:10;100461.44;;;10.62;100.00
21504;BME280;10913;51.992;9.228;2024-03-22T04:54:36;100461.44;;;10.62;100.00
21504;BME280;10913;51.992;9.228;2024-03-22T04:57:01;100457.03;;;10.60;100.00
21504;BME280;10913;51.992;9.228;2024-03-22T04:59:27;100453.50;;;10.59;100.00
21504;BME280;10913;51.992;9.228;2024-03-22T05:01:52;100452.69;;;10.57;100.00
21504;BME280;10913;51.992;9.228;2024-03-22T05:04:18;100456.22;;;10.53;100.00
21504;BME280;10913;51.992;9.228;2024-03-22T05:06:43;100459.72;;;10.54;100.00
21504;BME280;10913;51.992;9.228;2024-03-22T05:09:09;100454.44;;;10.49;100.00
21504;BME280;10913;51.992;9.228;2024-03-22T05:11:35;100444.78;;;10.45;100.00
21504;BME280;10913;51.992;9.228;2024-03-22T05:14:00;100453.59;;;10.44;100.00
21504;BME280;10913;51.992;9.228;2024-03-22T05:16:26;100454.47;;;10.43;100.00
21504;BME280;10913;51.992;9.228;2024-03-22T05:18:51;100447.44;;;10.42;100.00
21504;BME280;10913;51.992;9.228;2024-03-22T05:21:16;100443.91;;;10.40;100.00
21504;BME280;10913;51.992;9.228;2024-03-22T05:23:42;100446.59;;;10.39;100.00
21504;BME280;10913;51.992;9.228;2024-03-22T05:26:07;100451.00;;;10.38;100.00
21504;BME280;10913;51.992;9.228;2024-03-22T05:28:33;100455.38;;;10.39;100.00
21504;BME280;10913;51.992;9.228;2024-03-22T05:30:58;100443.03;;;10.40;100.00
21504;BME280;10913;51.992;9.228;2024-03-22T05:33:24;100441.31;;;10.39;100.00
21504;BME280;10913;51.992;9.228;2024-03-22T05:35:49;100429.88;;;10.38;100.00
21504;BME280;10913;51.992;9.228;2024-03-22T05:38:14;100425.47;;;10.37;100.00
21504;BME280;10913;51.992;9.228;2024-03-22T05:40:40;100427.22;;;10.37;100.00
21504;BME280;10913;51.992;9.228;2024-03-22T05:43:05;100432.50;;;10.33;100.00
21504;BME280;10913;51.992;9.228;2024-03-22T05:45:30;100432.50;;;10.33;100.00
21504;BME280;10913;51.992;9.228;2024-03-22T05:47:56;100421.94;;;10.32;100.00
21504;BME280;10913;51.992;9.228;2024-03-22T05:50:22;100431.63;;;10.31;100.00
21504;BME280;10913;51.992;9.228;2024-03-22T05:52:47;100422.84;;;10.31;100.00
21504;BME280;10913;51.992;9.228;2024-03-22T05:55:13;100421.97;;;10.30;100.00
21504;BME280;10913;51.992;9.228;2024-03-22T05:57:38;100414.03;;;10.32;100.00
21504;BME280;10913;51.992;9.228;2024-03-22T06:00:05;100414.03;;;10.32;100.00
21504;BME280;10913;51.992;9.228;2024-03-22T06:02:32;100412.28;;;10.31;100.00
21504;BME280;10913;51.992;9.228;2024-03-22T06:04:58;100402.59;;;10.31;100.00
21504;BME280;10913;51.992;9.228;2024-03-22T06:07:23;100400.84;;;10.30;100.00
21504;BME280;10913;51.992;9.228;2024-03-22T06:09:49;100402.59;;;10.31;100.00
21504;BME280;10913;51.992;9.228;2024-03-22T06:12:17;100405.22;;;10.34;100.00
21504;BME280;10913;51.992;9.228;2024-03-22T06:14:43;100406.97;;;10.37;100.00
21504;BME280;10913;51.992;9.228;2024-03-22T06:17:09;100397.25;;;10.41;100.00
21504;BME280;10913;51.992;9.228;2024-03-22T06:19:35;100406.03;;;10.46;100.00
21504;BME280;10913;51.992;9.228;2024-03-22T06:22:01;100406.91;;;10.49;100.00
21504;BME280;10913;51.992;9.228;2024-03-22T06:24:27;100409.53;;;10.55;100.00
21504;BME280;10913;51.992;9.228;2024-03-22T06:26:53;100403.31;;;10.59;100.00
21504;BME280;10913;51.992;9.228;2024-03-22T06:29:18;100410.38;;;10.60;100.00
21504;BME280;10913;51.992;9.228;2024-03-22T06:31:44;100408.59;;;10.65;100.00
21504;BME280;10913;51.992;9.228;2024-03-22T06:34:09;100408.56;;;10.68;100.00
21504;BME280;10913;51.992;9.228;2024-03-22T06:36:34;100403.28;;;10.72;100.00
21504;BME280;10913;51.992;9.228;2024-03-22T06:39:00;100402.38;;;10.74;100.00
21504;BME280;10913;51.992;9.228;2024-03-22T06:41:25;100406.72;;;10.81;100.00
21504;BME280;10913;51.992;9.228;2024-03-22T06:43:51;100396.97;;;10.92;100.00
21504;BME280;10913;51.992;9.228;2024-03-22T06:46:17;100392.50;;;11.02;100.00
21504;BME280;10913;51.992;9.228;2024-03-22T06:48:42;100397.63;;;11.23;100.00
21504;BME280;10913;51.992;9.228;2024-03-22T06:51:08;100393.06;;;11.40;100.00
21504;BME280;10913;51.992;9.228;2024-03-22T06:53:33;100387.72;;;11.50;100.00
21504;BME280;10913;51.992;9.228;2024-03-22T06:55:59;100378.84;;;11.55;100.00
21504;BME280;10913;51.992;9.228;2024-03-22T06:58:24;100379.72;;;11.56;100.00
21504;BME280;10913;51.992;9.228;2024-03-22T07:00:50;100369.13;;;11.59;100.00
21504;BME280;10913;51.992;9.228;2024-03-22T07:03:15;100362.88;;;11.64;100.00
21504;BME280;10913;51.992;9.228;2024-03-22T07:05:41;100365.44;;;11.72;100.00
21504;BME280;10913;51.992;9.228;2024-03-22T07:08:06;100360.09;;;11.80;99.68
21504;BME280;10913;51.992;9.228;2024-03-22T07:10:32;100362.66;;;11.89;99.25
21504;BME280;10913;51.992;9.228;2024-03-22T07:12:58;100364.34;;;11.96;99.04
21504;BME280;10913;51.992;9.228;2024-03-22T07:15:24;100358.06;;;12.01;98.78
21504;BME280;10913;51.992;9.228;2024-03-22T07:17:49;100366.91;;;12.00;98.24
21504;BME280;10913;51.992;9.228;2024-03-22T07:20:15;100365.13;;;12.04;98.14
21504;BME280;10913;51.992;9.228;2024-03-22T07:22:41;100359.69;;;12.18;98.25
21504;BME280;10913;51.992;9.228;2024-03-22T07:25:06;100369.97;;;12.39;97.69
21504;BME280;10913;51.992;9.228;2024-03-22T07:27:32;100361.19;;;12.98;95.92
21504;BME280;10913;51.992;9.228;2024-03-22T07:29:57;100353.53;;;13.37;93.29
21504;BME280;10913;51.992;9.228;2024-03-22T07:32:22;100347.66;;;13.66;92.45
21504;BME280;10913;51.992;9.228;2024-03-22T07:34:48;100325.63;;;13.61;90.77
21504;BME280;10913;51.992;9.228;2024-03-22T07:37:13;100332.66;;;13.65;91.09
21504;BME280;10913;51.992;9.228;2024-03-22T07:39:39;100340.53;;;13.69;91.35
21504;BME280;10913;51.992;9.228;2024-03-22T07:42:04;100338.28;;;13.47;90.56
21504;BME280;10913;51.992;9.228;2024-03-22T07:44:29;100336.88;;;13.27;91.68
21504;BME280;10913;51.992;9.228;2024-03-22T07:46:55;100343.09;;;13.25;92.12
21504;BME280;10913;51.992;9.228;2024-03-22T07:49:20;100318.50;;;13.14;92.08
21504;BME280;10913;51.992;9.228;2024-03-22T07:51:46;100324.78;;;13.08;93.23
21504;BME280;10913;51.992;9.228;2024-03-22T07:54:11;100313.34;;;13.04;93.05
21504;BME280;10913;51.992;9.228;2024-03-22T07:56:37;100309.84;;;13.02;93.33
21504;BME280;10913;51.992;9.228;2024-03-22T07:59:02;100310.75;;;13.00;92.44
21504;BME280;10913;51.992;9.228;2024-03-22T08:01:28;100291.41;;;12.95;92.78
21504;BME280;10913;51.992;9.228;2024-03-22T08:03:53;100305.56;;;12.95;93.43
21504;BME280;10913;51.992;9.228;2024-03-22T08:06:18;100300.22;;;12.97;93.38
21504;BME280;10913;51.992;9.228;2024-03-22T08:08:44;100298.47;;;12.96;93.12
21504;BME280;10913;51.992;9.228;2024-03-22T08:11:10;100302.81;;;13.00;93.15
21504;BME280;10913;51.992;9.228;2024-03-22T08:13:35;100303.72;;;12.99;93.24
21504;BME280;10913;51.992;9.228;2024-03-22T08:16:01;100292.16;;;13.01;93.04
21504;BME280;10913;51.992;9.228;2024-03-22T08:18:26;100291.28;;;13.01;93.86
21504;BME280;10913;51.992;9.228;2024-03-22T08:20:51;100301.03;;;13.00;93.42
21504;BME280;10913;51.992;9.228;2024-03-22T08:23:17;100301.97;;;12.98;93.14
21504;BME280;10913;51.992;9.228;2024-03-22T08:25:45;100302.81;;;13.00;92.62
21504;BME280;10913;51.992;9.228;2024-03-22T08:28:10;100293.03;;;13.02;92.16
21504;BME280;10913;51.992;9.228;2024-03-22T08:30:37;100298.28;;;13.06;92.51
21504;BME280;10913;51.992;9.228;2024-03-22T08:33:03;100297.34;;;13.09;92.40
21504;BME280;10913;51.992;9.228;2024-03-22T08:35:29;100294.66;;;13.12;92.72
21504;BME280;10913;51.992;9.228;2024-03-22T08:37:54;100295.50;;;13.14;92.52
21504;BME280;10913;51.992;9.228;2024-03-22T08:40:20;100286.63;;;13.18;92.31
21504;BME280;10913;51.992;9.228;2024-03-22T08:42:45;100279.47;;;13.22;92.09
21504;BME280;10913;51.992;9.228;2024-03-22T08:45:10;100273.13;;;13.30;91.78
21504;BME280;10913;51.992;9.228;2024-03-22T08:47:36;100265.06;;;13.36;91.43
21504;BME280;10913;51.992;9.228;2024-03-22T08:50:01;100276.59;;;13.35;90.97
21504;BME280;10913;51.992;9.228;2024-03-22T08:52:26;100264.09;;;13.40;90.88
21504;BME280;10913;51.992;9.228;2024-03-22T08:54:52;100265.84;;;13.41;91.21
21504;BME280;10913;51.992;9.228;2024-03-22T08:57:18;100265.06;;;13.38;90.04
21504;BME280;10913;51.992;9.228;2024-03-22T08:59:44;100269.41;;;13.39;89.92
21504;BME280;10913;51.992;9.228;2024-03-22T09:02:10;100280.09;;;13.37;89.88
21504;BME280;10913;51.992;9.228;2024-03-22T09:04:36;100282.81;;;13.34;89.78
21504;BME280;10913;51.992;9.228;2024-03-22T09:07:02;100273.03;;;13.36;89.15
21504;BME280;10913;51.992;9.228;2024-03-22T09:09:27;100268.50;;;13.41;88.70
21504;BME280;10913;51.992;9.228;2024-03-22T09:11:52;100264.84;;;13.49;88.24
21504;BME280;10913;51.992;9.228;2024-03-22T09:14:18;100261.31;;;13.48;87.46
21504;BME280;10913;51.992;9.228;2024-03-22T09:16:43;100262.91;;;13.57;88.07
21504;BME280;10913;51.992;9.228;2024-03-22T09:19:08;100245.91;;;13.65;86.82
21504;BME280;10913;51.992;9.228;2024-03-22T09:21:36;100242.22;;;13.74;86.43
21504;BME280;10913;51.992;9.228;2024-03-22T09:24:01;100249.13;;;13.81;85.84
21504;BME280;10913;51.992;9.228;2024-03-22T09:26:28;100233.06;;;13.87;85.75
21504;BME280;10913;51.992;9.228;2024-03-22T09:28:53;100228.47;;;13.95;85.81
21504;BME280;10913;51.992;9.228;2024-03-22T09:31:19;100232.72;;;14.02;85.48
21504;BME280;10913;51.992;9.228;2024-03-22T09:33:45;100231.75;;;14.06;84.70
21504;BME280;10913;51.992;9.228;2024-03-22T09:36:10;100213.03;;;14.12;84.48
21504;BME280;10913;51.992;9.228;2024-03-22T09:38:35;100225.34;;;14.17;83.22
21504;BME280;10913;51.992;9.228;2024-03-22T09:41:01;100225.22;;;14.21;84.11
21504;BME280;10913;51.992;9.228;2024-03-22T09:43:30;100217.97;;;14.29;83.80
21504;BME280;10913;51.992;9.228;2024-03-22T09:45:55;100209.03;;;14.33;83.40
21504;BME280;10913;51.992;9.228;2024-03-22T09:48:22;100205.31;;;14.39;83.07
21504;BME280;10913;51.992;9.228;2024-03-22T09:50:48;100205.22;;;14.45;82.35
21504;BME280;10913;51.992;9.228;2024-03-22T09:53:21;100203.47;;;14.44;81.09
21504;BME280;10913;51.992;9.228;2024-03-22T09:55:51;100204.41;;;14.41;80.95
21504;BME280;10913;51.992;9.228;2024-03-22T09:58:17;100193.59;;;14.49;81.19
21504;BME280;10913;51.992;9.228;2024-03-22T10:00:43;100202.38;;;14.53;80.03
21504;BME280;10913;51.992;9.228;2024-03-22T10:03:10;100178.50;;;14.51;77.57
21504;BME280;10913;51.992;9.228;2024-03-22T10:05:35;100190.81;;;14.55;78.56
21504;BME280;10913;51.992;9.228;2024-03-22T10:08:02;100183.56;;;14.60;77.75
21504;BME280;10913;51.992;9.228;2024-03-22T10:10:27;100173.78;;;14.62;78.58
21504;BME280;10913;51.992;9.228;2024-03-22T10:12:53;100179.63;;;14.76;78.37
21504;BME280;10913;51.992;9.228;2024-03-22T10:15:18;100169.56;;;14.88;78.75
21504;BME280;10913;51.992;9.228;2024-03-22T10:17:45;100172.88;;;14.97;78.74
21504;BME280;10913;51.992;9.228;2024-03-22T10:20:13;100163.09;;;14.98;77.16
21504;BME280;10913;51.992;9.228;2024-03-22T10:22:49;100168.31;;;15.01;76.75
21504;BME280;10913;51.992;9.228;2024-03-22T10:25:14;100165.66;;;15.01;75.77
21504;BME280;10913;51.992;9.228;2024-03-22T10:27:40;100173.00;;;14.93;75.66
21504;BME280;10913;51.992;9.228;2024-03-22T10:30:08;100172.09;;;14.94;75.50
21504;BME280;10913;51.992;9.228;2024-03-22T10:32:37;100166.13;;;14.84;76.21
21504;BME280;10913;51.992;9.228;2024-03-22T10:35:03;100163.69;;;14.76;74.94
21504;BME280;10913;51.992;9.228;2024-03-22T10:37:35;100174.34;;;14.75;76.04
21504;BME280;10913;51.992;9.228;2024-03-22T10:40:04;100162.16;;;14.66;78.02
21504;BME280;10913;51.992;9.228;2024-03-22T10:42:37;100152.38;;;14.67;77.43
21504;BME280;10913;51.992;9.228;2024-03-22T10:45:04;100157.63;;;14.70;77.45
21504;BME280;10913;51.992;9.228;2024-03-22T10:47:31;100153.13;;;14.73;77.25
21504;BME280;10913;51.992;9.228;2024-03-22T10:50:05;100153.03;;;14.76;77.25
21504;BME280;10913;51.992;9.228;2024-03-22T10:52:38;100145.75;;;14.83;77.90
21504;BME280;10913;51.992;9.228;2024-03-22T10:55:07;100157.25;;;14.83;76.86
21504;BME280;10913;51.992;9.228;2024-03-22T10:57:34;100154.69;;;14.80;76.31
21504;BME280;10913;51.992;9.228;2024-03-22T11:00:04;100146.66;;;14.82;76.23
21504;BME280;10913;51.992;9.228;2024-03-22T11:02:35;100149.28;;;14.83;76.66
21504;BME280;10913;51.992;9.228;2024-03-22T11:05:00;100143.97;;;14.83;77.26
21504;BME280;10913;51.992;9.228;2024-03-22T11:07:32;100146.53;;;14.87;77.67
21504;BME280;10913;51.992;9.228;2024-03-22T11:09:58;100148.19;;;14.92;77.72
21504;BME280;10913;51.992;9.228;2024-03-22T11:12:25;100136.66;;;14.92;77.53
21504;BME280;10913;51.992;9.228;2024-03-22T11:14:55;100140.22;;;14.91;78.33
21504;BME280;10913;51.992;9.228;2024-03-22T11:17:20;100129.78;;;14.83;80.70
21504;BME280;10913;51.992;9.228;2024-03-22T11:19:51;100148.63;;;14.75;81.49
21504;BME280;10913;51.992;9.228;2024-03-22T11:22:17;100126.75;;;14.64;80.74
21504;BME280;10913;51.992;9.228;2024-03-22T11:24:42;100127.53;;;14.68;81.40
21504;BME280;10913;51.992;9.228;2024-03-22T11:27:09;100129.59;;;14.58;80.24
21504;BME280;10913;51.992;9.228;2024-03-22T11:29:36;100122.56;;;14.56;80.05
21504;BME280;10913;51.992;9.228;2024-03-22T11:32:04;100114.44;;;14.60;80.03
21504;BME280;10913;51.992;9.228;2024-03-22T11:34:30;100111.59;;;14.68;79.91
21504;BME280;10913;51.992;9.228;2024-03-22T11:36:55;100112.22;;;14.77;79.66
21504;BME280;10913;51.992;9.228;2024-03-22T11:39:21;100113.97;;;14.78;78.54
21504;BME280;10913;51.992;9.228;2024-03-22T11:41:47;100113.09;;;14.78;78.69
21504;BME280;10913;51.992;9.228;2024-03-22T11:44:15;100106.72;;;14.83;78.50
21504;BME280;10913;51.992;9.228;2024-03-22T11:46:41;100104.03;;;14.85;79.22
21504;BME280;10913;51.992;9.228;2024-03-22T11:49:07;100105.78;;;14.86;78.77
21504;BME280;10913;51.992;9.228;2024-03-22T11:51:32;100108.31;;;14.91;78.91
21504;BME280;10913;51.992;9.228;2024-03-22T11:53:57;100098.47;;;14.94;79.06
21504;BME280;10913;51.992;9.228;2024-03-22T11:56:24;100098.38;;;14.97;78.85
21504;BME280;10913;51.992;9.228;2024-03-22T11:58:58;100098.09;;;15.06;79.29
21504;BME280;10913;51.992;9.228;2024-03-22T12:01:23;100103.28;;;15.12;78.84
21504;BME280;10913;51.992;9.228;2024-03-22T12:03:49;100094.44;;;15.10;78.83
21504;BME280;10913;51.992;9.228;2024-03-22T12:06:15;100095.13;;;15.19;78.85
21504;BME280;10913;51.992;9.228;2024-03-22T12:08:41;100093.03;;;15.28;79.25
21504;BME280;10913;51.992;9.228;2024-03-22T12:11:07;100095.53;;;15.34;79.28
21504;BME280;10913;51.992;9.228;2024-03-22T12:13:33;100085.81;;;15.33;78.81
21504;BME280;10913;51.992;9.228;2024-03-22T12:15:59;100101.69;;;15.36;79.90
21504;BME280;10913;51.992;9.228;2024-03-22T12:18:24;100089.22;;;15.38;80.17
21504;BME280;10913;51.992;9.228;2024-03-22T12:20:49;100081.16;;;15.40;79.33
21504;BME280;10913;51.992;9.228;2024-03-22T12:23:15;100083.78;;;15.41;79.71
21504;BME280;10913;51.992;9.228;2024-03-22T12:25:40;100081.22;;;15.38;80.78
21504;BME280;10913;51.992;9.228;2024-03-22T12:28:05;100075.25;;;15.30;80.53
21504;BME280;10913;51.992;9.228;2024-03-22T12:30:31;100072.75;;;15.24;80.99
21504;BME280;10913;51.992;9.228;2024-03-22T12:32:57;100086.06;;;15.24;80.73
21504;BME280;10913;51.992;9.228;2024-03-22T12:35:23;100080.78;;;15.23;80.82
21504;BME280;10913;51.992;9.228;2024-03-22T12:37:48;100078.22;;;15.20;81.56